sensor_id;sensor_type;location;lat;lon;timestamp;temperature;humidity
55121;DHT22;41019;48.512;9.036;2023-02-02T00:00:17;5.90;93.50
55121;DHT22;41019;48.512;9.036;2023-02-02T00:02:45;5.90;93.40
55121;DHT22;41019;48.512;9.036;2023-02-02T00:05:10;6.00;93.20
55121;DHT22;41019;48.512;9.036;2023-02-02T00:07:36;6.00;93.20
55121;DHT22;41019;48.512;9.036;2023-02-02T00:10:04;6.00;93.20
55121;DHT22;41019;48.512;9.036;2023-02-02T00:12:35;5.90;93.20
55121;DHT22;41019;48.512;9.036;2023-02-02T00:15:01;6.00;93.40
55121;DHT22;41019;48.512;9.036;2023-02-02T00:17:27;6.00;93.20
55121;DHT22;41019;48.512;9.036;2023-02-02T00:19:55;6.00;93.30
55121;DHT22;41019;48.512;9.036;2023-02-02T00:22:21;6.00;93.40
55121;DHT22;41019;48.512;9.036;2023-02-02T00:24:47;6.00;93.40
55121;DHT22;41019;48.512;9.036;2023-02-02T00:27:13;6.00;93.30
55121;DHT22;41019;48.512;9.036;2023-02-02T00:29:39;6.00;93.50
55121;DHT22;41019;48.512;9.036;2023-02-02T00:32:06;6.00;93.60
55121;DHT22;41019;48.512;9.036;2023-02-02T00:34:33;5.90;93.70
55121;DHT22;41019;48.512;9.036;2023-02-02T00:36:59;6.00;93.50
55121;DHT22;41019;48.512;9.036;2023-02-02T00:39:26;6.00;93.70
55121;DHT22;41019;48.512;9.036;2023-02-02T00:41:54;5.90;94.00
55121;DHT22;41019;48.512;9.036;2023-02-02T00:44:21;5.90;93.90
55121;DHT22;41019;48.512;9.036;2023-02-02T00:47:05;5.90;93.90
55121;DHT22;41019;48.512;9.036;2023-02-02T00:49:31;5.90;94.00
55121;DHT22;41019;48.512;9.036;2023-02-02T00:51:57;5.90;93.70
55121;DHT22;41019;48.512;9.036;2023-02-02T00:54:25;5.90;93.80
55121;DHT22;41019;48.512;9.036;2023-02-02T00:56:52;5.90;93.60
55121;DHT22;41019;48.512;9.036;2023-02-02T00:59:20;5.90;93.70
55121;DHT22;41019;48.512;9.036;2023-02-02T01:01:46;5.90;93.60
55121;DHT22;41019;48.512;9.036;2023-02-02T01:04:13;6.00;93.60
55121;DHT22;41019;48.512;9.036;2023-02-02T01:06:40;5.90;93.70
55121;DHT22;41019;48.512;9.036;2023-02-02T01:09:07;6.00;93.40
55121;DHT22;41019;48.512;9.036;2023-02-02T01:11:35;6.00;93.40
55121;DHT22;41019;48.512;9.036;2023-02-02T01:14:02;6.00;93.20
55121;DHT22;41019;48.512;9.036;2023-02-02T01:16:28;6.00;93.30
55121;DHT22;41019;48.512;9.036;2023-02-02T01:18:54;6.00;93.30
55121;DHT22;41019;48.512;9.036;2023-02-02T01:21:21;6.00;93.40
55121;DHT22;41019;48.512;9.036;2023-02-02T01:23:49;6.00;93.20
55121;DHT22;41019;48.512;9.036;2023-02-02T01:26:16;6.00;93.30
55121;DHT22;41019;48.512;9.036;2023-02-02T01:28:43;6.00;93.30
55121;DHT22;41019;48.512;9.036;2023-02-02T01:31:13;6.10;93.50
55121;DHT22;41019;48.512;9.036;2023-02-02T01:33:41;6.40;93.90
55121;DHT22;41019;48.512;9.036;2023-02-02T01:36:11;6.40;93.60
55121;DHT22;41019;48.512;9.036;2023-02-02T01:38:38;6.00;93.40
55121;DHT22;41019;48.512;9.036;2023-02-02T01:41:05;6.40;93.50
55121;DHT22;41019;48.512;9.036;2023-02-02T01:46:17;6.00;93.60
55121;DHT22;41019;48.512;9.036;2023-02-02T01:49:09;6.10;93.60
55121;DHT22;41019;48.512;9.036;2023-02-02T01:52:00;6.00;93.70
55121;DHT22;41019;48.512;9.036;2023-02-02T01:54:40;6.00;93.80
55121;DHT22;41019;48.512;9.036;2023-02-02T01:59:49;6.00;93.70
55121;DHT22;41019;48.512;9.036;2023-02-02T02:02:16;6.10;93.60
55121;DHT22;41019;48.512;9.036;2023-02-02T02:04:43;6.00;93.70
55121;DHT22;41019;48.512;9.036;2023-02-02T02:07:10;6.40;93.80
55121;DHT22;41019;48.512;9.036;2023-02-02T02:09:37;6.10;93.90
55121;DHT22;41019;48.512;9.036;2023-02-02T02:12:11;6.60;93.80
55121;DHT22;41019;48.512;9.036;2023-02-02T02:14:44;6.00;93.70
55121;DHT22;41019;48.512;9.036;2023-02-02T02:18:24;6.10;93.60
55121;DHT22;41019;48.512;9.036;2023-02-02T02:24:33;6.10;93.50
55121;DHT22;41019;48.512;9.036;2023-02-02T02:33:26;6.10;93.70
55121;DHT22;41019;48.512;9.036;2023-02-02T02:36:04;6.10;93.60
55121;DHT22;41019;48.512;9.036;2023-02-02T02:38:50;6.10;93.90
55121;DHT22;41019;48.512;9.036;2023-02-02T02:41:23;6.10;94.10
55121;DHT22;41019;48.512;9.036;2023-02-02T02:43:58;6.00;94.00
55121;DHT22;41019;48.512;9.036;2023-02-02T02:46:26;6.00;94.30
55121;DHT22;41019;48.512;9.036;2023-02-02T02:48:58;6.00;94.30
55121;DHT22;41019;48.512;9.036;2023-02-02T02:52:00;6.00;94.40
55121;DHT22;41019;48.512;9.036;2023-02-02T02:54:36;5.90;94.50
55121;DHT22;41019;48.512;9.036;2023-02-02T03:00:17;5.90;94.60
55121;DHT22;41019;48.512;9.036;2023-02-02T03:06:06;5.80;94.80
55121;DHT22;41019;48.512;9.036;2023-02-02T03:09:02;5.80;94.80
55121;DHT22;41019;48.512;9.036;2023-02-02T03:11:29;5.80;94.90
55121;DHT22;41019;48.512;9.036;2023-02-02T03:13:56;5.70;95.00
55121;DHT22;41019;48.512;9.036;2023-02-02T03:16:23;5.70;95.20
55121;DHT22;41019;48.512;9.036;2023-02-02T03:18:49;6.10;95.30
55121;DHT22;41019;48.512;9.036;2023-02-02T03:21:15;5.80;95.10
55121;DHT22;41019;48.512;9.036;2023-02-02T03:23:41;5.80;94.90
55121;DHT22;41019;48.512;9.036;2023-02-02T03:26:08;5.80;94.90
55121;DHT22;41019;48.512;9.036;2023-02-02T03:28:34;5.80;95.10
55121;DHT22;41019;48.512;9.036;2023-02-02T03:31:01;6.20;95.00
55121;DHT22;41019;48.512;9.036;2023-02-02T03:33:32;5.80;94.90
55121;DHT22;41019;48.512;9.036;2023-02-02T03:36:00;6.30;94.90
55121;DHT22;41019;48.512;9.036;2023-02-02T03:38:26;5.80;94.80
55121;DHT22;41019;48.512;9.036;2023-02-02T03:40:51;6.40;94.90
55121;DHT22;41019;48.512;9.036;2023-02-02T03:43:24;5.90;94.70
55121;DHT22;41019;48.512;9.036;2023-02-02T03:45:59;5.90;94.70
55121;DHT22;41019;48.512;9.036;2023-02-02T03:48:26;6.20;95.00
55121;DHT22;41019;48.512;9.036;2023-02-02T03:50:53;5.90;94.90
55121;DHT22;41019;48.512;9.036;2023-02-02T03:53:40;6.30;95.10
55121;DHT22;41019;48.512;9.036;2023-02-02T03:56:09;6.10;95.10
55121;DHT22;41019;48.512;9.036;2023-02-02T03:58:35;5.90;95.20
55121;DHT22;41019;48.512;9.036;2023-02-02T04:01:03;5.90;95.20
55121;DHT22;41019;48.512;9.036;2023-02-02T04:03:32;5.90;95.20
55121;DHT22;41019;48.512;9.036;2023-02-02T04:05:58;6.00;95.20
55121;DHT22;41019;48.512;9.036;2023-02-02T04:08:23;5.90;95.00
55121;DHT22;41019;48.512;9.036;2023-02-02T04:10:49;6.50;95.20
55121;DHT22;41019;48.512;9.036;2023-02-02T04:13:18;5.90;95.20
55121;DHT22;41019;48.512;9.036;2023-02-02T04:15:44;5.90;95.10
55121;DHT22;41019;48.512;9.036;2023-02-02T04:18:10;6.40;95.30
55121;DHT22;41019;48.512;9.036;2023-02-02T04:20:35;5.90;95.20
55121;DHT22;41019;48.512;9.036;2023-02-02T04:23:01;5.90;95.20
55121;DHT22;41019;48.512;9.036;2023-02-02T04:25:27;5.90;95.20
55121;DHT22;41019;48.512;9.036;2023-02-02T04:27:53;6.00;95.20
55121;DHT22;41019;48.512;9.036;2023-02-02T04:30:21;5.90;95.40
55121;DHT22;41019;48.512;9.036;2023-02-02T04:32:47;5.90;95.30
55121;DHT22;41019;48.512;9.036;2023-02-02T04:35:13;5.90;95.30
55121;DHT22;41019;48.512;9.036;2023-02-02T04:37:38;5.90;95.40
55121;DHT22;41019;48.512;9.036;2023-02-02T04:40:05;5.90;95.40
55121;DHT22;41019;48.512;9.036;2023-02-02T04:42:31;6.00;95.50
55121;DHT22;41019;48.512;9.036;2023-02-02T04:45:00;6.70;95.50
55121;DHT22;41019;48.512;9.036;2023-02-02T04:47:26;6.10;95.30
55121;DHT22;41019;48.512;9.036;2023-02-02T04:49:52;6.00;95.20
55121;DHT22;41019;48.512;9.036;2023-02-02T04:52:22;6.00;95.30
55121;DHT22;41019;48.512;9.036;2023-02-02T04:54:49;6.00;95.30
55121;DHT22;41019;48.512;9.036;2023-02-02T04:57:16;6.00;95.40
55121;DHT22;41019;48.512;9.036;2023-02-02T04:59:42;6.10;95.30
55121;DHT22;41019;48.512;9.036;2023-02-02T05:02:09;6.00;95.30
55121;DHT22;41019;48.512;9.036;2023-02-02T05:04:34;5.90;95.40
55121;DHT22;41019;48.512;9.036;2023-02-02T05:07:00;5.90;95.50
55121;DHT22;41019;48.512;9.036;2023-02-02T05:09:27;5.90;95.50
55121;DHT22;41019;48.512;9.036;2023-02-02T05:11:53;5.90;95.50
55121;DHT22;41019;48.512;9.036;2023-02-02T05:14:20;5.80;95.50
55121;DHT22;41019;48.512;9.036;2023-02-02T05:16:47;5.80;95.60
55121;DHT22;41019;48.512;9.036;2023-02-02T05:19:14;5.80;95.70
55121;DHT22;41019;48.512;9.036;2023-02-02T05:21:43;5.80;95.70
55121;DHT22;41019;48.512;9.036;2023-02-02T05:24:10;5.80;95.70
55121;DHT22;41019;48.512;9.036;2023-02-02T05:26:37;5.80;95.70
55121;DHT22;41019;48.512;9.036;2023-02-02T05:29:02;5.80;95.80
55121;DHT22;41019;48.512;9.036;2023-02-02T05:31:28;6.00;96.00
55121;DHT22;41019;48.512;9.036;2023-02-02T05:33:56;6.30;95.90
55121;DHT22;41019;48.512;9.036;2023-02-02T05:36:22;5.80;95.90
55121;DHT22;41019;48.512;9.036;2023-02-02T05:38:49;5.80;96.00
55121;DHT22;41019;48.512;9.036;2023-02-02T05:41:16;5.80;96.00
55121;DHT22;41019;48.512;9.036;2023-02-02T05:43:41;5.90;96.10
55121;DHT22;41019;48.512;9.036;2023-02-02T05:46:07;5.80;96.10
55121;DHT22;41019;48.512;9.036;2023-02-02T05:48:33;5.80;96.30
55121;DHT22;41019;48.512;9.036;2023-02-02T05:51:09;5.80;96.10
55121;DHT22;41019;48.512;9.036;2023-02-02T05:53:37;5.80;96.30
55121;DHT22;41019;48.512;9.036;2023-02-02T05:56:03;5.80;96.50
55121;DHT22;41019;48.512;9.036;2023-02-02T05:58:28;5.90;96.60
55121;DHT22;41019;48.512;9.036;2023-02-02T06:00:54;5.90;96.40
55121;DHT22;41019;48.512;9.036;2023-02-02T06:03:21;5.80;96.50
55121;DHT22;41019;48.512;9.036;2023-02-02T06:05:47;5.90;96.60
55121;DHT22;41019;48.512;9.036;2023-02-02T06:08:13;5.90;96.40
55121;DHT22;41019;48.512;9.036;2023-02-02T06:10:40;5.90;96.40
55121;DHT22;41019;48.512;9.036;2023-02-02T06:13:07;5.90;96.40
55121;DHT22;41019;48.512;9.036;2023-02-02T06:15:35;5.50;96.50
55121;DHT22;41019;48.512;9.036;2023-02-02T06:18:01;5.90;96.80
55121;DHT22;41019;48.512;9.036;2023-02-02T06:20:28;5.90;96.80
55121;DHT22;41019;48.512;9.036;2023-02-02T06:22:54;5.90;96.90
55121;DHT22;41019;48.512;9.036;2023-02-02T06:25:20;5.90;97.20
55121;DHT22;41019;48.512;9.036;2023-02-02T06:27:46;5.90;97.10
55121;DHT22;41019;48.512;9.036;2023-02-02T06:30:15;5.90;97.00
55121;DHT22;41019;48.512;9.036;2023-02-02T06:32:41;5.90;97.30
55121;DHT22;41019;48.512;9.036;2023-02-02T06:35:07;6.00;97.30
55121;DHT22;41019;48.512;9.036;2023-02-02T06:37:33;5.90;97.30
55121;DHT22;41019;48.512;9.036;2023-02-02T06:39:59;5.90;97.30
55121;DHT22;41019;48.512;9.036;2023-02-02T06:42:25;5.80;97.30
55121;DHT22;41019;48.512;9.036;2023-02-02T06:44:51;5.90;97.20
55121;DHT22;41019;48.512;9.036;2023-02-02T06:47:17;5.90;97.20
55121;DHT22;41019;48.512;9.036;2023-02-02T06:49:43;5.80;97.30
55121;DHT22;41019;48.512;9.036;2023-02-02T06:52:09;5.90;97.10
55121;DHT22;41019;48.512;9.036;2023-02-02T06:54:35;5.90;97.10
55121;DHT22;41019;48.512;9.036;2023-02-02T06:57:01;5.90;97.10
55121;DHT22;41019;48.512;9.036;2023-02-02T06:59:27;5.90;97.20
55121;DHT22;41019;48.512;9.036;2023-02-02T07:01:53;5.90;97.30
55121;DHT22;41019;48.512;9.036;2023-02-02T07:04:19;5.90;97.20
55121;DHT22;41019;48.512;9.036;2023-02-02T07:06:46;5.90;97.30
55121;DHT22;41019;48.512;9.036;2023-02-02T07:09:17;5.90;97.10
55121;DHT22;41019;48.512;9.036;2023-02-02T07:11:44;5.90;97.00
55121;DHT22;41019;48.512;9.036;2023-02-02T07:14:10;6.00;97.00
55121;DHT22;41019;48.512;9.036;2023-02-02T07:16:36;6.00;97.00
55121;DHT22;41019;48.512;9.036;2023-02-02T07:19:03;6.00;96.90
55121;DHT22;41019;48.512;9.036;2023-02-02T07:21:29;6.00;96.90
55121;DHT22;41019;48.512;9.036;2023-02-02T07:24:01;6.00;96.90
55121;DHT22;41019;48.512;9.036;2023-02-02T07:26:27;6.00;96.90
55121;DHT22;41019;48.512;9.036;2023-02-02T07:28:54;6.00;96.90
55121;DHT22;41019;48.512;9.036;2023-02-02T07:31:23;6.40;97.10
55121;DHT22;41019;48.512;9.036;2023-02-02T07:33:50;6.10;96.90
55121;DHT22;41019;48.512;9.036;2023-02-02T07:36:20;6.00;96.80
55121;DHT22;41019;48.512;9.036;2023-02-02T07:38:50;6.00;96.80
55121;DHT22;41019;48.512;9.036;2023-02-02T07:41:16;6.10;96.60
55121;DHT22;41019;48.512;9.036;2023-02-02T07:43:46;6.10;96.70
55121;DHT22;41019;48.512;9.036;2023-02-02T07:46:14;6.10;96.70
55121;DHT22;41019;48.512;9.036;2023-02-02T07:48:40;6.30;97.00
55121;DHT22;41019;48.512;9.036;2023-02-02T07:51:10;6.30;96.90
55121;DHT22;41019;48.512;9.036;2023-02-02T07:53:36;6.10;96.90
55121;DHT22;41019;48.512;9.036;2023-02-02T07:58:42;6.10;96.80
55121;DHT22;41019;48.512;9.036;2023-02-02T08:01:12;6.10;96.80
55121;DHT22;41019;48.512;9.036;2023-02-02T08:03:39;6.10;96.90
55121;DHT22;41019;48.512;9.036;2023-02-02T08:06:16;6.30;96.90
55121;DHT22;41019;48.512;9.036;2023-02-02T08:08:45;6.20;96.90
55121;DHT22;41019;48.512;9.036;2023-02-02T08:11:12;6.20;96.80
55121;DHT22;41019;48.512;9.036;2023-02-02T08:13:40;6.20;96.60
55121;DHT22;41019;48.512;9.036;2023-02-02T08:16:07;6.30;96.80
55121;DHT22;41019;48.512;9.036;2023-02-02T08:18:36;6.30;96.70
55121;DHT22;41019;48.512;9.036;2023-02-02T08:21:05;6.30;96.80
55121;DHT22;41019;48.512;9.036;2023-02-02T08:23:39;6.50;96.80
55121;DHT22;41019;48.512;9.036;2023-02-02T08:26:23;6.30;96.90
55121;DHT22;41019;48.512;9.036;2023-02-02T08:29:04;6.30;96.70
55121;DHT22;41019;48.512;9.036;2023-02-02T08:31:34;6.30;96.70
55121;DHT22;41019;48.512;9.036;2023-02-02T08:34:02;6.40;96.50
55121;DHT22;41019;48.512;9.036;2023-02-02T08:36:29;6.40;96.50
55121;DHT22;41019;48.512;9.036;2023-02-02T08:39:01;6.40;96.70
55121;DHT22;41019;48.512;9.036;2023-02-02T08:41:28;6.40;96.50
55121;DHT22;41019;48.512;9.036;2023-02-02T08:43:54;6.40;96.50
55121;DHT22;41019;48.512;9.036;2023-02-02T08:46:20;6.40;96.40
55121;DHT22;41019;48.512;9.036;2023-02-02T08:48:47;6.40;96.50
55121;DHT22;41019;48.512;9.036;2023-02-02T08:51:16;6.50;96.30
55121;DHT22;41019;48.512;9.036;2023-02-02T08:53:44;6.80;96.20
55121;DHT22;41019;48.512;9.036;2023-02-02T08:56:16;6.50;96.00
55121;DHT22;41019;48.512;9.036;2023-02-02T08:58:48;6.70;96.00
55121;DHT22;41019;48.512;9.036;2023-02-02T09:01:21;6.80;95.40
55121;DHT22;41019;48.512;9.036;2023-02-02T09:03:47;6.80;95.60
55121;DHT22;41019;48.512;9.036;2023-02-02T09:06:17;6.80;95.40
55121;DHT22;41019;48.512;9.036;2023-02-02T09:08:43;6.80;95.10
55121;DHT22;41019;48.512;9.036;2023-02-02T09:11:13;6.90;95.00
55121;DHT22;41019;48.512;9.036;2023-02-02T09:13:40;7.30;95.20
55121;DHT22;41019;48.512;9.036;2023-02-02T09:16:08;6.80;95.00
55121;DHT22;41019;48.512;9.036;2023-02-02T09:18:38;6.80;94.90
55121;DHT22;41019;48.512;9.036;2023-02-02T09:21:07;6.90;95.10
55121;DHT22;41019;48.512;9.036;2023-02-02T09:23:35;6.80;95.10
55121;DHT22;41019;48.512;9.036;2023-02-02T09:28:45;6.70;95.20
55121;DHT22;41019;48.512;9.036;2023-02-02T09:31:12;6.80;95.10
55121;DHT22;41019;48.512;9.036;2023-02-02T09:33:39;6.80;95.30
55121;DHT22;41019;48.512;9.036;2023-02-02T09:36:12;7.00;95.60
55121;DHT22;41019;48.512;9.036;2023-02-02T09:38:40;6.70;95.80
55121;DHT22;41019;48.512;9.036;2023-02-02T09:52:19;6.80;96.90
55121;DHT22;41019;48.512;9.036;2023-02-02T09:54:49;6.80;97.00
55121;DHT22;41019;48.512;9.036;2023-02-02T09:57:28;6.80;97.20
55121;DHT22;41019;48.512;9.036;2023-02-02T09:59:56;6.80;97.50
55121;DHT22;41019;48.512;9.036;2023-02-02T10:02:28;6.80;97.50
55121;DHT22;41019;48.512;9.036;2023-02-02T10:08:04;6.80;98.10
55121;DHT22;41019;48.512;9.036;2023-02-02T10:10:40;6.80;98.30
55121;DHT22;41019;48.512;9.036;2023-02-02T10:13:17;6.90;98.30
55121;DHT22;41019;48.512;9.036;2023-02-02T10:16:18;7.10;98.00
55121;DHT22;41019;48.512;9.036;2023-02-02T10:18:58;6.90;98.40
55121;DHT22;41019;48.512;9.036;2023-02-02T10:21:37;6.90;98.30
55121;DHT22;41019;48.512;9.036;2023-02-02T10:24:16;7.00;98.80
55121;DHT22;41019;48.512;9.036;2023-02-02T10:27:04;7.00;98.20
55121;DHT22;41019;48.512;9.036;2023-02-02T10:29:37;7.00;98.20
55121;DHT22;41019;48.512;9.036;2023-02-02T10:34:48;7.00;99.00
55121;DHT22;41019;48.512;9.036;2023-02-02T10:37:29;7.00;98.50
55121;DHT22;41019;48.512;9.036;2023-02-02T10:43:20;7.00;99.00
55121;DHT22;41019;48.512;9.036;2023-02-02T10:46:24;7.10;98.30
55121;DHT22;41019;48.512;9.036;2023-02-02T10:49:09;7.10;98.60
55121;DHT22;41019;48.512;9.036;2023-02-02T10:51:36;7.10;98.70
55121;DHT22;41019;48.512;9.036;2023-02-02T10:54:23;7.20;98.60
55121;DHT22;41019;48.512;9.036;2023-02-02T10:56:56;7.20;97.90
55121;DHT22;41019;48.512;9.036;2023-02-02T10:59:31;7.10;98.20
55121;DHT22;41019;48.512;9.036;2023-02-02T11:01:57;7.20;97.60
55121;DHT22;41019;48.512;9.036;2023-02-02T11:04:28;7.10;97.90
55121;DHT22;41019;48.512;9.036;2023-02-02T11:07:12;7.10;97.90
55121;DHT22;41019;48.512;9.036;2023-02-02T11:09:48;7.10;97.60
55121;DHT22;41019;48.512;9.036;2023-02-02T11:14:53;7.00;97.70
55121;DHT22;41019;48.512;9.036;2023-02-02T11:17:23;7.40;98.00
55121;DHT22;41019;48.512;9.036;2023-02-02T11:19:52;7.00;97.40
55121;DHT22;41019;48.512;9.036;2023-02-02T11:22:33;7.00;97.50
55121;DHT22;41019;48.512;9.036;2023-02-02T11:25:04;7.00;97.40
55121;DHT22;41019;48.512;9.036;2023-02-02T11:27:42;7.10;97.40
55121;DHT22;41019;48.512;9.036;2023-02-02T11:30:33;7.10;97.40
55121;DHT22;41019;48.512;9.036;2023-02-02T11:33:29;7.00;97.30
55121;DHT22;41019;48.512;9.036;2023-02-02T11:36:04;7.10;97.30
55121;DHT22;41019;48.512;9.036;2023-02-02T11:38:31;7.10;97.30
55121;DHT22;41019;48.512;9.036;2023-02-02T11:41:04;7.10;97.80
55121;DHT22;41019;48.512;9.036;2023-02-02T11:43:37;7.10;97.40
55121;DHT22;41019;48.512;9.036;2023-02-02T11:46:27;7.20;97.60
55121;DHT22;41019;48.512;9.036;2023-02-02T11:49:05;7.00;97.70
55121;DHT22;41019;48.512;9.036;2023-02-02T11:51:42;7.10;97.80
55121;DHT22;41019;48.512;9.036;2023-02-02T11:54:34;7.10;97.60
55121;DHT22;41019;48.512;9.036;2023-02-02T11:57:07;7.40;97.70
55121;DHT22;41019;48.512;9.036;2023-02-02T11:59:38;7.00;97.80
55121;DHT22;41019;48.512;9.036;2023-02-02T12:02:25;7.10;97.70
55121;DHT22;41019;48.512;9.036;2023-02-02T12:05:31;7.10;97.50
55121;DHT22;41019;48.512;9.036;2023-02-02T12:07:58;7.20;97.50
55121;DHT22;41019;48.512;9.036;2023-02-02T12:10:40;7.20;97.30
55121;DHT22;41019;48.512;9.036;2023-02-02T12:13:42;7.20;97.10
55121;DHT22;41019;48.512;9.036;2023-02-02T12:19:28;7.20;97.20
55121;DHT22;41019;48.512;9.036;2023-02-02T12:22:34;7.30;97.20
55121;DHT22;41019;48.512;9.036;2023-02-02T12:28:46;7.30;97.10
55121;DHT22;41019;48.512;9.036;2023-02-02T12:34:31;7.30;97.40
55121;DHT22;41019;48.512;9.036;2023-02-02T12:37:28;7.40;97.40
55121;DHT22;41019;48.512;9.036;2023-02-02T12:40:36;7.40;97.60
55121;DHT22;41019;48.512;9.036;2023-02-02T12:43:31;7.40;97.40
55121;DHT22;41019;48.512;9.036;2023-02-02T12:55:16;7.50;97.20
55121;DHT22;41019;48.512;9.036;2023-02-02T12:58:11;7.60;97.10
55121;DHT22;41019;48.512;9.036;2023-02-02T13:01:06;7.60;97.00
55121;DHT22;41019;48.512;9.036;2023-02-02T13:03:41;7.60;97.20
55121;DHT22;41019;48.512;9.036;2023-02-02T13:09:05;7.80;96.70
55121;DHT22;41019;48.512;9.036;2023-02-02T13:14:26;7.90;96.90
55121;DHT22;41019;48.512;9.036;2023-02-02T13:17:04;7.90;96.00
55121;DHT22;41019;48.512;9.036;2023-02-02T13:22:11;7.90;95.20
55121;DHT22;41019;48.512;9.036;2023-02-02T13:24:43;7.80;95.70
55121;DHT22;41019;48.512;9.036;2023-02-02T13:27:16;7.90;95.20
55121;DHT22;41019;48.512;9.036;2023-02-02T13:32:45;7.90;95.10
55121;DHT22;41019;48.512;9.036;2023-02-02T13:35:22;7.90;95.10
55121;DHT22;41019;48.512;9.036;2023-02-02T13:37:50;7.90;95.20
55121;DHT22;41019;48.512;9.036;2023-02-02T13:43:06;7.90;95.30
55121;DHT22;41019;48.512;9.036;2023-02-02T13:45:51;7.80;95.30
55121;DHT22;41019;48.512;9.036;2023-02-02T13:48:27;7.70;95.30
55121;DHT22;41019;48.512;9.036;2023-02-02T14:05:03;7.60;95.20
55121;DHT22;41019;48.512;9.036;2023-02-02T14:07:42;7.50;95.40
55121;DHT22;41019;48.512;9.036;2023-02-02T14:10:27;7.50;95.10
55121;DHT22;41019;48.512;9.036;2023-02-02T14:12:55;7.90;95.20
55121;DHT22;41019;48.512;9.036;2023-02-02T14:15:42;7.50;94.90
55121;DHT22;41019;48.512;9.036;2023-02-02T14:18:09;7.50;95.40
55121;DHT22;41019;48.512;9.036;2023-02-02T14:20:45;7.50;95.30
55121;DHT22;41019;48.512;9.036;2023-02-02T14:26:40;7.50;95.00
55121;DHT22;41019;48.512;9.036;2023-02-02T14:34:59;7.50;94.80
55121;DHT22;41019;48.512;9.036;2023-02-02T14:43:54;7.50;94.80
55121;DHT22;41019;48.512;9.036;2023-02-02T14:46:41;7.50;94.80
55121;DHT22;41019;48.512;9.036;2023-02-02T14:49:20;7.50;94.70
55121;DHT22;41019;48.512;9.036;2023-02-02T14:51:53;7.50;94.70
55121;DHT22;41019;48.512;9.036;2023-02-02T14:54:30;8.20;95.00
55121;DHT22;41019;48.512;9.036;2023-02-02T14:57:24;7.50;94.80
55121;DHT22;41019;48.512;9.036;2023-02-02T14:59:52;7.50;94.70
55121;DHT22;41019;48.512;9.036;2023-02-02T15:02:24;7.50;94.90
55121;DHT22;41019;48.512;9.036;2023-02-02T15:08:24;7.50;94.80
55121;DHT22;41019;48.512;9.036;2023-02-02T15:10:58;7.50;94.60
55121;DHT22;41019;48.512;9.036;2023-02-02T15:13:33;7.40;94.90
55121;DHT22;41019;48.512;9.036;2023-02-02T15:16:13;7.40;94.90
55121;DHT22;41019;48.512;9.036;2023-02-02T15:18:50;7.40;95.00
55121;DHT22;41019;48.512;9.036;2023-02-02T15:21:21;7.40;94.80
55121;DHT22;41019;48.512;9.036;2023-02-02T15:23:48;7.40;94.90
55121;DHT22;41019;48.512;9.036;2023-02-02T15:26:34;7.40;94.90
55121;DHT22;41019;48.512;9.036;2023-02-02T15:29:19;7.40;94.70
55121;DHT22;41019;48.512;9.036;2023-02-02T15:31:51;7.40;94.70
55121;DHT22;41019;48.512;9.036;2023-02-02T15:34:40;7.40;94.80
55121;DHT22;41019;48.512;9.036;2023-02-02T15:37:13;7.40;94.60
55121;DHT22;41019;48.512;9.036;2023-02-02T15:39:45;7.40;94.60
55121;DHT22;41019;48.512;9.036;2023-02-02T15:47:58;7.40;94.70
55121;DHT22;41019;48.512;9.036;2023-02-02T15:50:27;7.40;94.80
55121;DHT22;41019;48.512;9.036;2023-02-02T15:52:54;7.30;94.90
55121;DHT22;41019;48.512;9.036;2023-02-02T15:55:27;7.30;94.90
55121;DHT22;41019;48.512;9.036;2023-02-02T15:57:57;7.30;95.10
55121;DHT22;41019;48.512;9.036;2023-02-02T16:00:33;7.30;95.00
55121;DHT22;41019;48.512;9.036;2023-02-02T16:03:15;7.20;95.10
55121;DHT22;41019;48.512;9.036;2023-02-02T16:05:50;7.20;95.30
55121;DHT22;41019;48.512;9.036;2023-02-02T16:08:27;7.20;95.10
55121;DHT22;41019;48.512;9.036;2023-02-02T16:11:07;7.20;95.40
55121;DHT22;41019;48.512;9.036;2023-02-02T16:13:34;7.20;95.20
55121;DHT22;41019;48.512;9.036;2023-02-02T16:16:06;7.20;95.30
55121;DHT22;41019;48.512;9.036;2023-02-02T16:18:35;7.20;95.20
55121;DHT22;41019;48.512;9.036;2023-02-02T16:21:08;7.20;95.30
55121;DHT22;41019;48.512;9.036;2023-02-02T16:23:36;7.20;95.20
55121;DHT22;41019;48.512;9.036;2023-02-02T16:26:05;7.20;95.30
55121;DHT22;41019;48.512;9.036;2023-02-02T16:28:33;7.20;95.10
55121;DHT22;41019;48.512;9.036;2023-02-02T16:31:01;7.20;95.30
55121;DHT22;41019;48.512;9.036;2023-02-02T16:33:40;7.20;95.10
55121;DHT22;41019;48.512;9.036;2023-02-02T16:36:24;7.20;95.40
55121;DHT22;41019;48.512;9.036;2023-02-02T16:38:51;7.40;95.30
55121;DHT22;41019;48.512;9.036;2023-02-02T16:41:32;7.20;95.20
55121;DHT22;41019;48.512;9.036;2023-02-02T16:46:56;7.10;95.20
55121;DHT22;41019;48.512;9.036;2023-02-02T16:49:25;7.20;95.20
55121;DHT22;41019;48.512;9.036;2023-02-02T16:52:15;7.20;95.30
55121;DHT22;41019;48.512;9.036;2023-02-02T16:54:51;7.20;95.20
55121;DHT22;41019;48.512;9.036;2023-02-02T16:57:32;7.20;95.10
55121;DHT22;41019;48.512;9.036;2023-02-02T17:00:03;7.20;95.40
55121;DHT22;41019;48.512;9.036;2023-02-02T17:02:34;7.10;95.50
55121;DHT22;41019;48.512;9.036;2023-02-02T17:05:25;7.10;95.60
55121;DHT22;41019;48.512;9.036;2023-02-02T17:08:00;7.10;95.50
55121;DHT22;41019;48.512;9.036;2023-02-02T17:10:38;7.10;95.40
55121;DHT22;41019;48.512;9.036;2023-02-02T17:15:59;7.10;95.90
55121;DHT22;41019;48.512;9.036;2023-02-02T17:18:27;7.10;95.70
55121;DHT22;41019;48.512;9.036;2023-02-02T17:20:55;7.10;95.80
55121;DHT22;41019;48.512;9.036;2023-02-02T17:23:25;7.40;95.80
55121;DHT22;41019;48.512;9.036;2023-02-02T17:25:53;7.10;95.90
55121;DHT22;41019;48.512;9.036;2023-02-02T17:28:23;7.10;96.00
55121;DHT22;41019;48.512;9.036;2023-02-02T17:33:52;7.10;95.90
55121;DHT22;41019;48.512;9.036;2023-02-02T17:36:18;7.10;95.90
55121;DHT22;41019;48.512;9.036;2023-02-02T17:38:44;7.10;95.90
55121;DHT22;41019;48.512;9.036;2023-02-02T17:41:11;7.50;96.00
55121;DHT22;41019;48.512;9.036;2023-02-02T17:43:39;7.10;96.00
55121;DHT22;41019;48.512;9.036;2023-02-02T17:46:10;7.10;95.90
55121;DHT22;41019;48.512;9.036;2023-02-02T17:48:37;7.10;95.90
55121;DHT22;41019;48.512;9.036;2023-02-02T17:51:07;7.10;96.10
55121;DHT22;41019;48.512;9.036;2023-02-02T17:53:36;7.10;95.90
55121;DHT22;41019;48.512;9.036;2023-02-02T17:56:05;7.10;96.20
55121;DHT22;41019;48.512;9.036;2023-02-02T17:58:31;7.10;96.10
55121;DHT22;41019;48.512;9.036;2023-02-02T18:00:57;7.40;96.40
55121;DHT22;41019;48.512;9.036;2023-02-02T18:03:30;7.10;96.00
55121;DHT22;41019;48.512;9.036;2023-02-02T18:05:58;7.10;96.10
55121;DHT22;41019;48.512;9.036;2023-02-02T18:08:27;7.10;96.10
55121;DHT22;41019;48.512;9.036;2023-02-02T18:10:53;7.10;96.10
55121;DHT22;41019;48.512;9.036;2023-02-02T18:13:21;7.10;96.40
55121;DHT22;41019;48.512;9.036;2023-02-02T18:15:48;7.10;96.30
55121;DHT22;41019;48.512;9.036;2023-02-02T18:18:17;7.00;96.50
55121;DHT22;41019;48.512;9.036;2023-02-02T18:20:44;7.00;96.60
55121;DHT22;41019;48.512;9.036;2023-02-02T18:23:12;7.00;96.60